Time;durP1;ratioP1;P1;durP2;ratioP2;P2;SDS_P1;SDS_P2;PMS_P1;PMS_P2;Temp;Humidity;BMP_temperature;BMP_pressure;BME280_temperature;BME280_humidity;BME280_pressure;Samples;Min_cycle;Max_cycle;Signal;HPM_P1;HPM_P2
2023/04/21 16:47:46;;;;;;;0.40;0.40;;;19.40;66.50;;;19.90;48.44;94601.75;5056003;22;1742874;-26
2023/04/21 16:56:40;;;;;;;0.45;0.45;;;19.30;65.60;;;19.86;47.61;94604.13;4924879;23;20339;-27
2023/04/21 16:59:10;;;;;;;0.50;0.50;;;19.30;66.10;;;19.84;47.94;94609.69;4818075;29;20230;-27
2023/04/21 17:01:44;;;;;;;0.60;0.60;;;19.20;66.00;;;19.86;47.54;94611.28;4864912;29;20267;-27
2023/04/21 17:04:14;;;;;;;0.40;0.40;;;19.20;65.70;;;19.83;47.16;94601.94;4848151;29;20188;-27
2023/04/21 17:06:42;;;;;;;0.43;0.43;;;19.10;65.80;;;19.81;47.54;94601.38;4832794;29;20210;-27
2023/04/21 17:09:09;;;;;;;0.60;0.60;;;19.10;65.80;;;19.80;47.27;94600.59;4818248;29;20267;-27
2023/04/21 17:11:37;;;;;;;0.45;0.45;;;19.10;65.50;;;19.79;47.04;94606.97;5627596;23;20244;-29
2023/04/21 17:14:06;;;;;;;0.55;0.55;;;19.10;65.30;;;19.78;46.90;94605.34;4829742;29;20207;-28
2023/04/21 17:17:06;;;;;;;0.50;0.50;;;19.00;65.50;;;19.75;46.85;94605.06;4846054;29;20206;-28
2023/04/21 17:20:41;;;;;;;;;;;;;;;;;;;;;
2023/04/21 17:27:24;;;;;;;0.50;0.50;;;18.90;66.00;;;19.61;47.01;94600.19;4848833;29;20214;-28
2023/04/21 17:30:57;;;;;;;0.60;0.60;;;18.90;65.60;;;19.56;47.17;94602.84;4847384;29;20655;-28
2023/04/21 17:35:04;;;;;;;0.50;0.50;;;18.90;66.30;;;19.46;47.18;94602.78;4852412;29;20233;-28
2023/04/21 17:38:47;;;;;;;;;;;;;;;;;;;;;
2023/04/21 17:42:27;;;;;;;0.50;0.50;;;18.70;65.90;;;19.34;47.65;94610.91;4805259;29;20230;-28
2023/04/21 17:48:52;;;;;;;0.60;0.60;;;18.60;66.30;;;19.25;48.21;94613.25;4754417;30;20301;-29
2023/04/21 17:55:14;;;;;;;0.55;0.55;;;18.60;66.90;;;19.13;48.21;94612.63;4750767;30;20297;-28
2023/04/21 18:03:19;;;;;;;0.52;0.52;;;18.40;66.70;;;18.99;48.64;94618.34;4753800;30;20305;-28
2023/04/21 18:10:25;;;;;;;0.70;0.70;;;18.30;66.80;;;18.90;48.36;94619.03;4736148;30;20240;-29
2023/04/21 18:13:38;;;;;;;0.57;0.57;;;18.30;67.20;;;18.86;48.69;94621.38;4735420;30;20270;-28
2023/04/21 18:17:13;;;;;;;0.60;0.60;;;18.20;66.90;;;18.80;48.52;94628.50;4792411;29;20208;-28
2023/04/21 18:20:10;;;;;;;0.52;0.52;;;18.20;67.00;;;18.78;49.01;94624.50;4807215;29;20196;-28
2023/04/21 18:23:10;;;;;;;0.52;0.52;;;18.10;67.40;;;18.74;48.62;94621.53;4794554;29;20584;-28
2023/04/21 18:26:31;;;;;;;0.60;0.60;;;18.10;67.20;;;18.69;49.16;94629.44;4794464;29;20617;-28
2023/04/21 18:29:27;;;;;;;0.60;0.60;;;18.10;67.80;;;18.68;48.97;94630.50;4789144;30;20278;-28
2023/04/21 18:32:23;;;;;;;0.55;0.55;;;18.10;67.80;;;18.64;49.09;94626.72;4788649;30;20306;-28
2023/04/21 18:35:07;;;;;;;0.50;0.50;;;18.00;67.60;;;18.62;49.22;94628.84;4774111;30;20210;-29
2023/04/21 18:37:34;;;;;;;0.52;0.52;;;18.00;67.60;;;18.61;49.43;94624.56;4781577;30;20265;-28
2023/04/21 18:40:04;;;;;;;0.50;0.50;;;17.90;67.70;;;18.58;49.30;94627.72;4787501;30;20209;-28
2023/04/21 18:42:32;;;;;;;0.50;0.50;;;17.90;67.90;;;18.56;49.29;94631.41;4788803;30;20205;-28
2023/04/21 18:45:00;;;;;;;0.60;0.60;;;17.90;67.80;;;18.54;49.49;94620.25;4773913;30;20213;-28
2023/04/21 18:47:31;;;;;;;0.50;0.50;;;17.90;67.70;;;18.53;49.79;94629.28;4828509;29;20210;-28
2023/04/21 18:49:59;;;;;;;0.50;0.50;;;17.90;68.10;;;18.50;49.67;94627.09;4842994;29;20207;-28
2023/04/21 18:52:27;;;;;;;0.60;0.60;;;17.80;68.00;;;18.49;49.88;94630.00;4843551;29;20283;-28
2023/04/21 18:55:01;;;;;;;0.60;0.60;;;17.90;68.00;;;18.46;49.58;94633.97;4843079;29;20201;-28
2023/04/21 18:57:30;;;;;;;0.50;0.50;;;17.80;68.00;;;18.43;50.12;94631.81;4842613;29;20198;-28
2023/04/21 18:59:58;;;;;;;0.63;0.63;;;17.80;68.00;;;18.41;50.15;94636.56;4812081;29;20214;-28
2023/04/21 19:02:28;;;;;;;0.60;0.60;;;17.80;68.10;;;18.39;50.15;94634.19;4841983;29;20639;-28
2023/04/21 19:04:56;;;;;;;0.60;0.60;;;17.80;68.10;;;18.37;49.89;94627.47;4827782;29;20207;-28
2023/04/21 19:07:23;;;;;;;0.60;0.60;;;17.80;68.20;;;18.34;49.99;94633.31;4845967;29;20218;-28
2023/04/21 19:09:52;;;;;;;0.50;0.50;;;17.70;68.40;;;18.32;50.40;94635.38;4862799;29;20611;-28
2023/04/21 19:12:20;;;;;;;0.57;0.57;;;17.70;68.60;;;18.30;50.31;94635.66;4847099;29;20237;-28
2023/04/21 19:14:51;;;;;;;0.50;0.50;;;17.70;68.60;;;18.27;50.80;94635.34;4863005;29;20206;-28
2023/04/21 19:17:19;;;;;;;0.60;0.60;;;17.70;68.60;;;18.24;50.31;94636.63;4831679;29;20182;-28
2023/04/21 19:19:47;;;;;;;0.57;0.57;;;17.70;68.60;;;18.23;50.58;94635.81;4862654;29;20206;-28
2023/04/21 19:22:15;;;;;;;0.60;0.60;;;17.70;68.60;;;18.21;50.38;94623.84;4862515;29;20244;-28
2023/04/21 19:24:42;;;;;;;0.60;0.60;;;17.70;68.60;;;18.18;50.24;94633.09;4862377;29;20218;-28
2023/04/21 19:27:10;;;;;;;0.60;0.60;;;17.60;68.70;;;18.16;50.57;94629.09;4862380;29;20533;-28
2023/04/21 19:29:38;;;;;;;0.60;0.60;;;17.60;68.60;;;18.13;50.67;94630.41;4862654;29;20205;-28
2023/04/21 19:32:06;;;;;;;0.50;0.50;;;17.60;68.60;;;18.11;51.00;94635.13;4831307;29;20295;-28
2023/04/21 19:34:33;;;;;;;0.60;0.60;;;17.50;68.60;;;18.08;50.75;94636.44;4862502;29;20190;-28
2023/04/21 19:37:00;;;;;;;0.60;0.60;;;17.60;68.90;;;18.06;50.85;94635.06;4831525;29;20201;-28
2023/04/21 19:39:28;;;;;;;0.60;0.60;;;17.50;68.80;;;18.01;51.04;94635.81;4862456;29;20232;-28
2023/04/21 19:41:56;;;;;;;0.50;0.50;;;17.50;68.90;;;18.00;50.73;94636.06;4845253;29;20196;-28
2023/04/21 19:44:23;;;;;;;0.60;0.60;;;17.50;68.80;;;17.98;50.88;94638.16;4862270;29;20198;-28
2023/04/21 19:46:51;;;;;;;0.57;0.57;;;17.50;68.80;;;17.93;51.20;94631.69;4862643;29;20202;-28
2023/04/21 19:49:19;;;;;;;0.60;0.60;;;17.50;68.90;;;17.92;51.15;94634.59;4845569;29;20194;-28
2023/04/21 19:51:47;;;;;;;0.50;0.50;;;17.40;68.80;;;17.89;51.30;94633.25;4862275;29;20198;-28
2023/04/21 19:54:15;;;;;;;0.50;0.50;;;17.40;68.90;;;17.85;50.96;94634.75;4862411;29;20198;-28
2023/04/21 19:56:43;;;;;;;0.50;0.50;;;17.40;68.90;;;17.84;51.46;94627.84;4862645;29;20323;-28
2023/04/21 19:59:11;;;;;;;0.57;0.57;;;17.30;68.80;;;17.80;50.99;94634.69;4846726;29;20194;-28
2023/04/21 20:01:38;;;;;;;0.60;0.60;;;17.30;68.70;;;17.77;51.29;94636.00;4862180;29;20205;-28
2023/04/21 20:04:06;;;;;;;0.60;0.60;;;17.30;68.80;;;17.74;51.11;94628.50;4846326;29;20646;-28
2023/04/21 20:06:39;;;;;;;0.57;0.57;;;17.30;68.90;;;17.72;51.64;94629.81;4862358;29;20209;-28
2023/04/21 20:09:09;;;;;;;0.60;0.60;;;17.30;68.80;;;17.70;51.06;94631.88;4862190;29;20198;-28
2023/04/21 20:11:39;;;;;;;0.70;0.70;;;17.30;69.00;;;17.67;51.63;94633.19;4862266;29;20197;-29
2023/04/21 20:14:08;;;;;;;0.70;0.70;;;17.20;69.10;;;17.64;51.67;94622.25;4846425;29;20592;-28
2023/04/21 20:16:36;;;;;;;0.57;0.57;;;17.20;69.20;;;17.63;51.62;94625.97;4862239;29;20222;-28
2023/04/21 20:19:04;;;;;;;0.60;0.60;;;17.20;69.20;;;17.60;51.79;94624.59;4863889;29;20194;-28
2023/04/21 20:21:32;;;;;;;0.60;0.60;;;17.20;69.20;;;17.58;51.76;94626.69;4849871;29;20194;-28
2023/04/21 20:23:59;;;;;;;0.52;0.52;;;17.20;69.30;;;17.56;52.05;94626.91;4850019;29;20206;-28
2023/04/21 20:26:26;;;;;;;0.60;0.60;;;17.10;69.10;;;17.54;51.80;94633.50;4850067;29;20545;-28
2023/04/21 20:28:55;;;;;;;0.60;0.60;;;17.10;69.20;;;17.51;51.51;94632.16;4865575;29;20198;-28
2023/04/21 20:31:24;;;;;;;0.50;0.50;;;17.10;69.20;;;17.50;52.12;94632.41;4849382;29;20206;-28
2023/04/21 20:33:52;;;;;;;0.52;0.52;;;17.10;69.30;;;17.48;51.77;94632.66;4865615;29;20237;-28
2023/04/21 20:36:21;;;;;;;0.60;0.60;;;17.10;69.40;;;17.46;51.70;94636.59;4865449;29;20195;-28
2023/04/21 20:38:49;;;;;;;0.50;0.50;;;17.10;69.30;;;17.43;52.26;94630.72;4849316;29;20583;-28
2023/04/21 20:41:17;;;;;;;0.63;0.63;;;17.10;69.20;;;17.41;52.21;94634.66;4865490;29;20206;-28
2023/04/21 20:43:45;;;;;;;0.60;0.60;;;17.00;69.20;;;17.39;52.06;94634.91;4848986;29;20594;-28
2023/04/21 20:46:14;;;;;;;0.60;0.60;;;17.00;69.30;;;17.36;51.91;94643.34;4865441;29;20270;-28
2023/04/21 20:48:42;;;;;;;0.57;0.57;;;17.00;69.30;;;17.34;52.30;94642.75;4849425;29;20214;-28
2023/04/21 20:51:11;;;;;;;0.65;0.65;;;17.00;69.30;;;17.32;52.01;94636.91;4833779;29;20631;-28
2023/04/21 20:53:39;;;;;;;0.60;0.60;;;17.00;69.40;;;17.29;52.33;94632.09;4848777;29;20245;-28
2023/04/21 20:56:06;;;;;;;0.60;0.60;;;17.00;69.40;;;17.26;52.21;94630.72;4865115;29;20622;-28
2023/04/21 20:58:34;;;;;;;0.50;0.50;;;16.90;69.30;;;17.24;52.24;94630.16;4833601;29;20540;-28
2023/04/21 21:01:02;;;;;;;0.43;0.43;;;16.90;69.40;;;17.22;52.27;94629.59;4865156;29;20218;-28
2023/04/21 21:03:30;;;;;;;0.60;0.60;;;16.90;69.40;;;17.20;52.09;94634.34;4833536;29;20266;-28
2023/04/21 21:05:58;;;;;;;0.50;0.50;;;16.90;69.50;;;17.17;52.10;94621.53;4864948;29;20213;-28
2023/04/21 21:08:26;;;;;;;0.60;0.60;;;16.90;69.40;;;17.17;52.04;94631.34;4864853;29;20233;-28
2023/04/21 21:10:54;;;;;;;0.60;0.60;;;16.90;69.40;;;17.13;52.58;94625.72;4834098;29;20225;-28
2023/04/21 21:13:21;;;;;;;0.50;0.50;;;16.80;69.40;;;17.09;52.10;94622.75;4864514;29;20309;-28
2023/04/21 21:15:49;;;;;;;0.52;0.52;;;16.80;69.30;;;17.08;52.09;94629.09;4864834;29;20606;-28
2023/04/21 21:18:16;;;;;;;0.60;0.60;;;16.80;69.30;;;17.06;52.31;94622.44;4864934;29;20580;-28
2023/04/21 21:20:45;;;;;;;0.60;0.60;;;16.80;69.20;;;17.04;52.40;94635.94;4848617;29;20198;-28
2023/04/21 21:23:12;;;;;;;0.60;0.60;;;16.70;69.30;;;17.01;52.51;94633.75;4848563;29;20202;-28
2023/04/21 21:25:40;;;;;;;0.60;0.60;;;16.70;69.30;;;16.96;52.59;94629.16;4848825;29;20206;-28
2023/04/21 21:28:07;;;;;;;0.50;0.50;;;16.70;69.30;;;16.93;52.04;94642.06;4848428;29;20218;-28
2023/04/21 21:30:35;;;;;;;0.60;0.60;;;16.70;69.40;;;16.90;52.56;94639.88;4864620;29;20194;-28
2023/04/21 21:33:03;;;;;;;0.60;0.60;;;16.70;69.20;;;16.87;52.49;94641.16;4847913;29;20624;-28
2023/04/21 21:35:31;;;;;;;0.50;0.50;;;16.60;69.20;;;16.87;52.48;94651.75;4864712;29;20266;-28
2023/04/21 21:37:59;;;;;;;0.57;0.57;;;16.60;69.40;;;16.83;52.64;94642.66;4864293;29;20262;-28
2023/04/21 21:40:27;;;;;;;0.50;0.50;;;16.60;69.40;;;16.81;52.70;94645.56;4864443;29;20535;-28
2023/04/21 21:42:55;;;;;;;0.70;0.70;;;16.60;69.30;;;16.78;52.54;94643.41;4864163;29;20206;-28
2023/04/21 21:45:23;;;;;;;0.50;0.50;;;16.50;69.30;;;16.76;52.41;94642.81;4864291;29;20198;-28
2023/04/21 21:47:51;;;;;;;0.70;0.70;;;16.50;69.60;;;16.74;52.56;94641.47;4833151;29;20233;-28
2023/04/21 21:50:18;;;;;;;0.52;0.52;;;16.50;69.30;;;16.72;52.49;94643.53;4833715;29;20206;-28
2023/04/21 21:52:46;;;;;;;0.50;0.50;;;16.50;69.30;;;16.68;52.40;94642.41;4863855;29;20218;-28
2023/04/21 21:55:14;;;;;;;0.50;0.50;;;16.50;69.40;;;16.65;52.80;94644.47;4864086;29;20202;-28
2023/04/21 21:57:45;;;;;;;0.60;0.60;;;16.40;69.30;;;16.64;52.50;94645.50;4833006;29;20198;-28
2023/04/21 22:00:14;;;;;;;0.57;0.57;;;16.40;69.30;;;16.62;52.44;94638.84;4848665;29;20251;-28
2023/04/21 22:02:43;;;;;;;0.50;0.50;;;16.40;69.40;;;16.60;52.69;94646.22;4863890;29;20738;-28
2023/04/21 22:05:12;;;;;;;0.60;0.60;;;16.40;69.60;;;16.58;52.37;94643.81;4832503;29;20229;-28
2023/04/21 22:07:41;;;;;;;0.60;0.60;;;16.40;69.50;;;16.56;52.75;94648.53;4847546;29;20205;-28
2023/04/21 22:10:10;;;;;;;0.50;0.50;;;16.30;69.50;;;16.54;52.64;94644.50;4863788;29;20212;-28
2023/04/21 22:12:38;;;;;;;0.68;0.68;;;16.30;69.60;;;16.53;52.63;94648.19;4863445;29;20237;-28
2023/04/21 22:15:10;;;;;;;0.60;0.60;;;16.30;69.60;;;16.50;52.96;94649.47;4863841;29;20565;-28
2023/04/21 22:17:42;;;;;;;0.60;0.60;;;16.30;69.60;;;16.47;52.90;94637.50;4847382;29;20270;-28
2023/04/21 22:20:14;;;;;;;0.60;0.60;;;16.30;69.60;;;16.45;52.89;94644.91;4848677;29;20209;-28
2023/04/21 22:22:43;;;;;;;0.60;0.60;;;16.20;69.40;;;16.43;53.08;94648.81;4847443;29;20635;-28
2023/04/21 22:25:10;;;;;;;0.50;0.50;;;16.20;69.50;;;16.39;52.50;94637.09;4863434;29;20202;-28
2023/04/21 22:27:38;;;;;;;0.60;0.60;;;16.20;69.50;;;16.38;52.62;94644.22;4863525;29;20277;-28
2023/04/21 22:30:07;;;;;;;0.60;0.60;;;16.20;69.60;;;16.35;52.67;94636.75;4847328;29;20255;-28
2023/04/21 22:32:35;;;;;;;0.70;0.70;;;16.20;69.50;;;16.32;53.02;94635.38;4863211;29;20262;-28
2023/04/21 22:35:03;;;;;;;0.60;0.60;;;16.10;69.50;;;16.31;53.06;94640.91;4863299;29;20653;-28
2023/04/21 22:37:31;;;;;;;0.60;0.60;;;16.10;69.60;;;16.28;52.74;94644.84;4847277;29;20266;-28
2023/04/21 22:39:59;;;;;;;0.60;0.60;;;16.10;69.30;;;16.26;52.54;94641.59;4863274;29;20202;-28
2023/04/21 22:42:27;;;;;;;0.57;0.57;;;16.10;69.40;;;16.22;53.14;94635.19;4846273;29;20202;-28
2023/04/21 22:44:55;;;;;;;0.60;0.60;;;16.10;69.50;;;16.19;53.04;94637.50;4863454;29;20204;-28
2023/04/21 22:47:24;;;;;;;0.70;0.70;;;16.00;69.40;;;16.17;52.79;94637.72;4846907;29;20230;-28
2023/04/21 22:49:52;;;;;;;0.60;0.60;;;16.00;69.40;;;16.14;52.95;94646.91;4863430;29;20209;-28
2023/04/21 22:52:27;;;;;;;0.65;0.65;;;16.00;69.40;;;16.11;52.86;94644.75;4846658;29;20229;-28
2023/04/21 22:54:55;;;;;;;0.80;0.80;;;16.00;69.60;;;16.09;53.44;94640.75;4863029;29;20644;-28
2023/04/21 22:57:24;;;;;;;0.60;0.60;;;16.00;69.60;;;16.07;52.90;94648.09;4863059;29;20197;-28
2023/04/21 22:59:52;;;;;;;0.60;0.60;;;16.00;69.50;;;16.05;53.20;94647.50;4847147;29;20252;-28
2023/04/21 23:02:20;;;;;;;0.60;0.60;;;15.90;69.50;;;16.04;52.89;94653.84;4847475;29;20578;-28
2023/04/21 23:04:48;;;;;;;0.60;0.60;;;15.90;69.50;;;16.00;52.96;94651.66;4846930;29;20198;-28
2023/04/21 23:07:16;;;;;;;0.70;0.70;;;15.90;69.70;;;15.97;53.38;94646.03;4846804;29;20194;-28
2023/04/21 23:09:44;;;;;;;0.60;0.60;;;15.90;69.60;;;15.95;53.25;94645.47;4862974;29;20203;-28
2023/04/21 23:12:11;;;;;;;0.52;0.52;;;15.80;69.40;;;15.93;52.84;94650.16;4862729;29;20334;-29
2023/04/21 23:14:38;;;;;;;0.60;0.60;;;15.80;69.50;;;15.91;53.25;94653.03;4862634;29;20616;-28
2023/04/21 23:17:06;;;;;;;0.50;0.50;;;15.80;69.50;;;15.88;53.06;94650.88;4846389;29;20599;-28
2023/04/21 23:19:33;;;;;;;0.60;0.60;;;15.70;69.40;;;15.87;53.14;94657.19;4831505;29;20220;-28
2023/04/21 23:22:01;;;;;;;0.60;0.60;;;15.80;69.60;;;15.85;53.04;94653.97;4846257;29;20294;-28
2023/04/21 23:24:28;;;;;;;0.60;0.60;;;15.70;69.60;;;15.84;53.12;94655.00;4862673;29;20278;-28
2023/04/21 23:26:57;;;;;;;0.60;0.60;;;15.70;69.70;;;15.81;53.17;94661.53;4862627;29;20190;-28
2023/04/21 23:29:24;;;;;;;0.77;0.77;;;15.70;69.60;;;15.80;53.33;94657.28;4862871;29;20607;-28
2023/04/21 23:31:52;;;;;;;0.60;0.60;;;15.70;69.60;;;15.77;53.32;94655.09;4862469;29;20194;-28
2023/04/21 23:34:20;;;;;;;0.60;0.60;;;15.70;69.50;;;15.76;53.42;94656.13;4862461;29;20218;-28
2023/04/21 23:36:47;;;;;;;0.60;0.60;;;15.60;69.60;;;15.73;53.24;94651.28;4846783;29;20209;-29
2023/04/21 23:39:16;;;;;;;0.70;0.70;;;15.60;69.60;;;15.72;53.26;94651.53;4862530;29;20201;-28
2023/04/21 23:41:44;;;;;;;0.60;0.60;;;15.60;69.70;;;15.69;53.44;94652.81;4862977;29;20570;-28
2023/04/21 23:44:11;;;;;;;0.60;0.60;;;15.60;69.60;;;15.67;53.49;94649.56;4862516;29;20198;-29
2023/04/21 23:46:39;;;;;;;0.60;0.60;;;15.60;69.60;;;15.65;53.10;94649.03;4862441;29;20333;-29
2023/04/21 23:49:07;;;;;;;0.70;0.70;;;15.60;69.60;;;15.64;53.55;94650.03;4846447;29;20203;-29
2023/04/21 23:51:35;;;;;;;0.60;0.60;;;15.50;69.60;;;15.63;53.51;94651.06;4862607;29;20280;-28
2023/04/21 23:54:03;;;;;;;0.60;0.60;;;15.50;69.60;;;15.60;53.84;94647.06;4847712;29;20230;-28
2023/04/21 23:56:31;;;;;;;0.60;0.60;;;15.50;69.60;;;15.60;53.36;94651.53;4866084;29;20296;-29
2023/04/21 23:58:58;;;;;;;0.60;0.60;;;15.50;69.60;;;15.58;53.56;94650.97;4850063;29;20194;-28
